Time;durP1;ratioP1;P1;durP2;ratioP2;P2;SDS_P1;SDS_P2;PMS_P1;PMS_P2;Temp;Humidity;BMP_temperature;BMP_pressure;BME280_temperature;BME280_humidity;BME280_pressure;Samples;Min_cycle;Max_cycle;Signal;HPM_P1;HPM_P2
2022/07/26 00:00:04;;;;;;;7.70;6.90;;;22.00;75.00;;;;;;5062188;28;20199;-90
2022/07/26 00:02:30;;;;;;;7.65;6.65;;;22.00;75.00;;;;;;5079029;28;20153;-88
2022/07/26 00:04:56;;;;;;;7.32;6.63;;;22.00;75.00;;;;;;5061954;28;20165;-89
2022/07/26 00:07:22;;;;;;;8.18;7.07;;;22.00;75.00;;;;;;5062172;28;20168;-89
2022/07/26 00:09:49;;;;;;;7.60;6.80;;;22.00;74.90;;;;;;5079127;28;20186;-88
2022/07/26 00:12:15;;;;;;;8.02;7.22;;;22.00;75.00;;;;;;5079006;28;20153;-88
2022/07/26 00:14:41;;;;;;;7.10;6.40;;;22.00;75.00;;;;;;5061974;28;20192;-89
2022/07/26 00:17:07;;;;;;;8.50;7.05;;;22.00;74.90;;;;;;5078920;28;20163;-89
2022/07/26 00:19:34;;;;;;;8.73;7.47;;;22.00;75.10;;;;;;5061995;28;20248;-90
2022/07/26 00:24:36;;;;;;;7.78;6.80;;;22.00;75.10;;;;;;5095535;28;20161;-89
2022/07/26 00:27:01;;;;;;;7.85;7.05;;;22.00;75.00;;;;;;5061963;28;20164;-89
2022/07/26 00:29:27;;;;;;;8.13;7.07;;;22.00;75.00;;;;;;5078293;28;20222;-90
2022/07/26 00:31:53;;;;;;;7.90;7.07;;;22.00;76.00;;;;;;5061795;28;20160;-90
2022/07/26 00:34:21;;;;;;;7.45;6.47;;;22.00;75.00;;;;;;5095152;28;20184;-90
2022/07/26 00:36:46;;;;;;;8.27;7.07;;;22.00;75.10;;;;;;5061665;28;20164;-89
2022/07/26 00:39:13;;;;;;;7.75;6.95;;;22.00;75.00;;;;;;5061877;28;20191;-90
2022/07/26 00:41:41;;;;;;;7.90;7.10;;;21.90;75.00;;;;;;5078112;28;20161;-89
2022/07/26 00:44:07;;;;;;;8.10;6.68;;;21.90;75.00;;;;;;5095300;28;20165;-88
2022/07/26 00:46:33;;;;;;;7.70;6.90;;;22.00;75.00;;;;;;5095022;28;20164;-89
2022/07/26 00:48:58;;;;;;;7.88;6.97;;;21.90;75.00;;;;;;5061645;28;20569;-89
2022/07/26 00:51:25;;;;;;;7.50;6.57;;;21.90;75.00;;;;;;5077878;28;20188;-89
2022/07/26 00:53:51;;;;;;;7.50;6.70;;;21.90;75.00;;;;;;5077772;28;20224;-88
2022/07/26 00:56:16;;;;;;;7.85;7.03;;;21.90;75.00;;;;;;5095352;28;20169;-88
2022/07/26 00:58:44;;;;;;;7.70;6.90;;;21.90;75.00;;;;;;5077941;28;20236;-89
2022/07/26 01:01:10;;;;;;;7.57;6.82;;;21.90;75.00;;;;;;5095060;28;20242;-89
2022/07/26 01:03:37;;;;;;;8.35;7.22;;;22.00;75.10;;;;;;5061221;28;20174;-90
2022/07/26 01:06:04;;;;;;;7.90;7.07;;;21.90;75.00;;;;;;5061071;28;20203;-88
2022/07/26 01:08:30;;;;;;;8.13;7.18;;;21.90;75.00;;;;;;5061257;28;20161;-90
2022/07/26 01:10:56;;;;;;;7.60;6.80;;;22.00;75.10;;;;;;5077782;28;20179;-90
2022/07/26 01:13:22;;;;;;;7.68;6.60;;;22.00;75.00;;;;;;5060911;28;20188;-89
2022/07/26 01:15:48;;;;;;;7.43;6.63;;;21.90;75.00;;;;;;5077582;28;20160;-89
2022/07/26 01:18:16;;;;;;;7.90;7.10;;;21.90;75.00;;;;;;5060923;28;20165;-89
2022/07/26 01:20:43;;;;;;;8.23;7.07;;;21.90;75.00;;;;;;5061316;28;20219;-89
2022/07/26 01:23:08;;;;;;;7.55;6.75;;;22.00;75.20;;;;;;5061229;28;20203;-89
2022/07/26 01:25:36;;;;;;;8.57;7.35;;;21.90;75.00;;;;;;5077160;28;20145;-88
2022/07/26 01:28:03;;;;;;;8.07;7.20;;;21.90;75.10;;;;;;5060954;28;20527;-90
2022/07/26 01:30:30;;;;;;;8.48;7.32;;;21.90;75.20;;;;;;5060503;28;20210;-90
2022/07/26 01:32:55;;;;;;;8.40;7.28;;;21.90;75.00;;;;;;5077231;28;20217;-89
2022/07/26 01:35:23;;;;;;;8.15;7.30;;;22.00;75.20;;;;;;5060875;28;20152;-90
2022/07/26 01:37:49;;;;;;;8.02;7.18;;;21.90;75.20;;;;;;5060549;28;20157;-89
2022/07/26 01:40:14;;;;;;;8.02;7.22;;;22.00;75.30;;;;;;5060218;28;20165;-91
2022/07/26 01:42:40;;;;;;;8.52;7.60;;;21.90;75.20;;;;;;5093975;28;20161;-90
2022/07/26 01:45:08;;;;;;;8.07;7.22;;;21.90;75.20;;;;;;5060255;28;20169;-89
2022/07/26 01:47:34;;;;;;;8.90;7.40;;;21.80;75.10;;;;;;5060548;28;20156;-90
2022/07/26 01:50:00;;;;;;;8.15;7.35;;;21.90;75.10;;;;;;5076859;28;20519;-89
2022/07/26 01:52:26;;;;;;;8.05;7.07;;;21.90;75.20;;;;;;5060080;28;20198;-90
2022/07/26 01:54:54;;;;;;;8.55;7.50;;;21.90;75.20;;;;;;5059891;28;20252;-89
2022/07/26 01:57:20;;;;;;;8.90;7.40;;;21.90;75.20;;;;;;5076725;28;20157;-89
2022/07/26 01:59:45;;;;;;;7.90;7.10;;;21.90;75.30;;;;;;5060167;28;20221;-89
2022/07/26 02:02:11;;;;;;;9.07;7.85;;;21.90;75.30;;;;;;5060062;28;20195;-89
2022/07/26 02:07:21;;;;;;;7.85;7.05;;;21.90;75.20;;;;;;5079049;28;20157;-89
2022/07/26 02:09:50;;;;;;;9.00;7.35;;;21.90;75.10;;;;;;5059885;28;20173;-90
2022/07/26 02:12:16;;;;;;;8.00;7.20;;;21.90;75.10;;;;;;5059695;28;20226;-90
2022/07/26 02:14:42;;;;;;;8.07;7.22;;;21.90;76.10;;;;;;5059155;28;20197;-90
2022/07/26 02:17:09;;;;;;;7.88;7.03;;;21.90;75.10;;;;;;5076822;28;20160;-90
2022/07/26 02:19:35;;;;;;;8.00;7.20;;;21.90;75.20;;;;;;5076566;28;20161;-89
2022/07/26 02:22:02;;;;;;;8.60;7.53;;;21.90;75.20;;;;;;5076233;28;20149;-90
2022/07/26 02:24:29;;;;;;;7.65;6.85;;;21.90;75.20;;;;;;5059987;28;20221;-89
2022/07/26 02:26:58;;;;;;;8.15;7.25;;;21.90;75.20;;;;;;5059841;28;20168;-89
2022/07/26 02:29:24;;;;;;;7.85;7.05;;;21.90;75.20;;;;;;5025656;28;20177;-89
2022/07/26 02:31:51;;;;;;;7.80;6.90;;;21.90;75.30;;;;;;5059421;28;20172;-91
2022/07/26 02:34:18;;;;;;;8.13;6.80;;;21.90;75.30;;;;;;5059510;28;20589;-89
2022/07/26 02:36:44;;;;;;;7.95;7.13;;;21.80;75.20;;;;;;5059396;28;20171;-90
2022/07/26 02:39:11;;;;;;;8.63;7.57;;;21.90;75.20;;;;;;5059364;28;20164;-90
2022/07/26 02:41:38;;;;;;;8.27;7.38;;;21.90;75.30;;;;;;5076139;28;20559;-89
2022/07/26 02:44:06;;;;;;;8.35;7.22;;;21.90;75.30;;;;;;5076227;28;20515;-89
2022/07/26 02:46:34;;;;;;;7.82;7.03;;;21.90;75.30;;;;;;5075925;28;20160;-89
2022/07/26 02:49:00;;;;;;;9.73;8.30;;;21.90;75.20;;;;;;5076270;28;20168;-88
2022/07/26 02:51:26;;;;;;;8.18;7.13;;;21.90;75.20;;;;;;5059146;28;20222;-88
2022/07/26 02:53:52;;;;;;;8.45;7.55;;;21.90;75.30;;;;;;5058974;28;20337;-87
2022/07/26 02:56:19;;;;;;;8.30;7.30;;;21.90;75.30;;;;;;5076111;28;20152;-88
2022/07/26 02:58:46;;;;;;;8.32;7.45;;;21.90;75.30;;;;;;5058932;28;20164;-88
2022/07/26 03:01:13;;;;;;;9.50;8.02;;;21.80;75.30;;;;;;5075830;28;20163;-89
2022/07/26 03:03:43;;;;;;;7.93;7.13;;;21.90;75.30;;;;;;5092605;28;20169;-90
2022/07/26 03:06:09;;;;;;;8.70;7.80;;;21.90;75.40;;;;;;5075571;28;20206;-90
2022/07/26 03:08:35;;;;;;;8.50;7.68;;;21.90;75.40;;;;;;5059053;28;20193;-89
2022/07/26 03:11:02;;;;;;;8.50;7.40;;;21.90;75.40;;;;;;5094012;28;20160;-88
2022/07/26 03:13:27;;;;;;;8.35;7.45;;;21.90;75.40;;;;;;5075569;28;20180;-88
2022/07/26 03:15:53;;;;;;;8.23;7.40;;;21.80;75.30;;;;;;5075941;28;20157;-88
2022/07/26 03:18:20;;;;;;;8.75;7.72;;;21.90;75.40;;;;;;5092515;28;20155;-90
2022/07/26 03:20:45;;;;;;;8.65;7.75;;;21.80;75.40;;;;;;5075643;28;20607;-88
2022/07/26 03:23:11;;;;;;;8.40;7.50;;;21.80;75.30;;;;;;5075951;28;20157;-90
2022/07/26 03:25:37;;;;;;;8.77;7.35;;;21.80;75.30;;;;;;5059778;28;20578;-89
2022/07/26 03:28:04;;;;;;;8.75;7.85;;;21.80;75.40;;;;;;5063312;28;20248;-90
2022/07/26 03:30:29;;;;;;;8.40;7.45;;;21.80;75.40;;;;;;5062909;28;20342;-90
2022/07/26 03:32:57;;;;;;;8.00;7.10;;;21.80;75.40;;;;;;5062558;28;20639;-88
2022/07/26 03:35:23;;;;;;;8.40;7.10;;;21.80;75.40;;;;;;5079633;28;20157;-90
2022/07/26 03:37:48;;;;;;;8.35;7.45;;;21.90;75.40;;;;;;5062699;28;20165;-90
2022/07/26 03:40:15;;;;;;;8.57;7.68;;;21.90;75.40;;;;;;5079316;28;20160;-90
2022/07/26 03:42:44;;;;;;;8.35;7.15;;;21.80;75.40;;;;;;5062631;28;20161;-88
2022/07/26 03:45:15;;;;;;;8.30;7.45;;;21.80;75.50;;;;;;5062611;28;20165;-88
2022/07/26 03:47:42;;;;;;;9.55;8.00;;;21.90;75.50;;;;;;5079645;28;20573;-88
2022/07/26 03:50:08;;;;;;;8.10;7.28;;;21.80;76.30;;;;;;5062452;28;20169;-89
2022/07/26 03:52:33;;;;;;;8.73;7.82;;;21.80;75.40;;;;;;5079142;28;20624;-88
2022/07/26 03:54:59;;;;;;;8.73;7.82;;;21.80;75.40;;;;;;5079204;28;20200;-87
2022/07/26 03:57:25;;;;;;;7.95;7.15;;;21.80;75.50;;;;;;5079240;28;20313;-88
2022/07/26 03:59:50;;;;;;;8.65;7.32;;;21.80;75.60;;;;;;5062199;28;20160;-89
2022/07/26 04:02:16;;;;;;;9.40;7.97;;;21.90;75.60;;;;;;5096632;28;20165;-90
2022/07/26 04:04:43;;;;;;;8.52;7.63;;;21.80;75.50;;;;;;5079122;28;20202;-90
2022/07/26 04:07:09;;;;;;;9.35;7.95;;;21.80;75.50;;;;;;5078923;28;20168;-89
2022/07/26 04:09:36;;;;;;;8.48;7.57;;;21.80;75.50;;;;;;5061910;28;20168;-89
2022/07/26 04:12:02;;;;;;;8.80;7.45;;;21.80;75.50;;;;;;5095461;28;20160;-89
2022/07/26 04:14:30;;;;;;;8.48;7.32;;;21.80;75.50;;;;;;5095480;28;20260;-89
2022/07/26 04:16:58;;;;;;;8.38;7.47;;;21.80;75.50;;;;;;5062199;28;20192;-89
2022/07/26 04:19:23;;;;;;;9.77;8.27;;;21.80;75.60;;;;;;5078688;28;20164;-88
2022/07/26 04:21:50;;;;;;;8.35;7.55;;;21.80;75.50;;;;;;5078752;28;20160;-89
2022/07/26 04:24:16;;;;;;;8.98;7.40;;;21.80;75.50;;;;;;5062060;28;20680;-89
2022/07/26 04:26:41;;;;;;;8.13;7.32;;;21.80;75.50;;;;;;5061856;28;20170;-90
2022/07/26 04:29:07;;;;;;;8.95;7.68;;;21.80;75.50;;;;;;5061680;28;20174;-90
2022/07/26 04:31:36;;;;;;;8.00;7.20;;;21.70;75.50;;;;;;5061970;28;20176;-89
2022/07/26 04:34:06;;;;;;;8.63;7.32;;;21.80;75.60;;;;;;5096323;28;20651;-88
2022/07/26 04:36:31;;;;;;;8.40;7.50;;;21.80;75.60;;;;;;5078293;28;20161;-89
2022/07/26 04:38:59;;;;;;;9.02;7.35;;;21.80;75.60;;;;;;5060699;28;20164;-89
2022/07/26 04:41:28;;;;;;;8.90;7.78;;;21.80;75.70;;;;;;5062229;28;20157;-89
2022/07/26 04:43:55;;;;;;;8.55;7.65;;;21.70;75.60;;;;;;5095027;28;20200;-90
2022/07/26 04:46:20;;;;;;;8.55;7.65;;;21.70;75.70;;;;;;5061605;28;20164;-90
2022/07/26 04:48:46;;;;;;;8.90;8.00;;;21.70;75.80;;;;;;5061872;28;20516;-89
2022/07/26 04:51:12;;;;;;;8.40;7.50;;;21.80;75.90;;;;;;5061603;28;20674;-89
2022/07/26 04:53:37;;;;;;;9.23;7.78;;;21.70;75.90;;;;;;5060677;28;20219;-90
2022/07/26 04:56:04;;;;;;;9.10;7.47;;;21.70;75.90;;;;;;5078018;28;20176;-90
2022/07/26 04:58:33;;;;;;;8.60;7.38;;;21.70;75.90;;;;;;5061706;28;20157;-89
2022/07/26 05:00:59;;;;;;;7.80;7.00;;;21.70;76.30;;;;;;5078005;28;20506;-90
2022/07/26 05:03:24;;;;;;;7.80;6.97;;;21.80;76.50;;;;;;5061174;28;20194;-89
2022/07/26 05:05:50;;;;;;;8.70;7.30;;;21.80;76.70;;;;;;5061128;28;20180;-91
2022/07/26 05:08:16;;;;;;;7.78;6.85;;;21.80;76.90;;;;;;5095066;28;20495;-90
2022/07/26 05:10:41;;;;;;;7.25;6.55;;;21.80;77.40;;;;;;5094824;28;20157;-89
2022/07/26 05:13:09;;;;;;;7.45;6.75;;;21.90;77.80;;;;;;5061036;28;20523;-92
2022/07/26 05:15:38;;;;;;;6.93;6.22;;;21.90;78.20;;;;;;5077676;28;20154;-89
2022/07/26 05:18:05;;;;;;;7.22;6.53;;;21.90;78.70;;;;;;5060768;28;20195;-89
2022/07/26 05:20:32;;;;;;;7.20;6.50;;;21.80;79.50;;;;;;5061606;28;20159;-91
2022/07/26 05:22:58;;;;;;;6.85;6.15;;;21.70;80.40;;;;;;5060780;28;20521;-90
2022/07/26 05:25:25;;;;;;;6.40;5.80;;;21.60;81.10;;;;;;5061366;28;20218;-89
2022/07/26 05:27:52;;;;;;;6.68;5.97;;;21.60;81.70;;;;;;5061169;28;20202;-90
2022/07/26 05:30:18;;;;;;;6.70;6.03;;;21.60;82.10;;;;;;5060718;28;20571;-89
2022/07/26 05:32:44;;;;;;;6.80;6.20;;;21.60;82.60;;;;;;5060793;28;20210;-89
2022/07/26 05:35:10;;;;;;;7.00;6.30;;;21.50;82.90;;;;;;5061106;28;20292;-89
2022/07/26 05:37:37;;;;;;;6.40;5.80;;;21.60;83.20;;;;;;5060462;28;20157;-90
2022/07/26 05:40:03;;;;;;;6.30;5.55;;;21.60;83.70;;;;;;5060614;28;20172;-89
2022/07/26 05:42:29;;;;;;;6.40;5.80;;;21.50;83.90;;;;;;5077722;28;20188;-89
2022/07/26 05:44:57;;;;;;;6.53;5.93;;;21.50;84.30;;;;;;5094319;28;20153;-89
2022/07/26 05:47:23;;;;;;;5.80;5.20;;;21.50;84.60;;;;;;5060895;28;20164;-89
2022/07/26 05:49:49;;;;;;;6.95;6.25;;;21.50;85.00;;;;;;5060468;28;20169;-90
2022/07/26 05:52:15;;;;;;;6.43;5.82;;;21.50;85.40;;;;;;5060542;28;20195;-90
2022/07/26 05:54:43;;;;;;;6.10;5.50;;;21.50;85.80;;;;;;5076774;28;20216;-88
2022/07/26 05:57:09;;;;;;;6.70;6.00;;;21.50;86.00;;;;;;5076936;28;20168;-89
2022/07/26 05:59:34;;;;;;;6.15;5.53;;;21.40;86.20;;;;;;5061019;28;20161;-88
2022/07/26 06:02:01;;;;;;;5.85;5.25;;;21.50;86.40;;;;;;5060155;28;20183;-89
2022/07/26 06:04:29;;;;;;;5.63;5.05;;;21.40;86.60;;;;;;5060207;28;20161;-91
2022/07/26 06:06:55;;;;;;;5.80;5.20;;;21.40;86.90;;;;;;5059658;28;20169;-89
2022/07/26 06:09:23;;;;;;;5.72;5.13;;;21.40;87.00;;;;;;5059802;28;20172;-88
2022/07/26 06:11:50;;;;;;;5.20;4.70;;;21.40;87.40;;;;;;5076957;28;20254;-89
2022/07/26 06:14:17;;;;;;;5.32;4.82;;;21.40;87.60;;;;;;5076436;28;20538;-90
2022/07/26 06:16:44;;;;;;;4.78;4.38;;;21.30;87.80;;;;;;5093360;28;20176;-88
2022/07/26 06:19:11;;;;;;;5.18;4.68;;;21.40;88.20;;;;;;5059883;28;20164;-87
2022/07/26 06:21:37;;;;;;;5.15;4.65;;;21.40;88.40;;;;;;5076693;28;20229;-91
2022/07/26 06:24:03;;;;;;;5.25;4.70;;;21.40;88.60;;;;;;5059738;28;20217;-89
2022/07/26 06:26:30;;;;;;;4.82;4.32;;;21.40;88.70;;;;;;5059591;28;20270;-89
2022/07/26 06:28:56;;;;;;;4.90;4.40;;;21.40;88.80;;;;;;5093307;28;20164;-90
2022/07/26 06:31:23;;;;;;;4.72;4.30;;;21.40;89.00;;;;;;5059460;28;20164;-89
2022/07/26 06:33:48;;;;;;;5.15;4.53;;;21.30;89.10;;;;;;5059304;28;20192;-89
2022/07/26 06:36:15;;;;;;;4.60;4.15;;;21.30;89.40;;;;;;5059749;28;20202;-89
2022/07/26 06:38:41;;;;;;;4.47;4.07;;;21.30;89.70;;;;;;5059251;28;20243;-90
2022/07/26 06:41:07;;;;;;;4.50;4.10;;;21.30;89.90;;;;;;5076054;28;20241;-91
2022/07/26 06:43:35;;;;;;;4.70;4.20;;;21.40;90.00;;;;;;5092963;28;20165;-90
2022/07/26 06:46:01;;;;;;;4.68;4.28;;;21.40;90.00;;;;;;5076078;28;20180;-89
2022/07/26 06:48:26;;;;;;;4.43;4.03;;;21.40;90.00;;;;;;5076239;28;20176;-90
2022/07/26 06:50:53;;;;;;;4.70;4.30;;;21.30;90.00;;;;;;5076420;28;20168;-89
2022/07/26 06:53:19;;;;;;;4.18;3.78;;;21.40;90.00;;;;;;5059294;28;20224;-90
2022/07/26 06:55:44;;;;;;;4.55;4.15;;;21.40;90.00;;;;;;5059363;28;20534;-91
2022/07/26 06:58:12;;;;;;;4.38;3.97;;;21.30;90.00;;;;;;5075959;28;20612;-90
2022/07/26 07:00:40;;;;;;;4.20;3.80;;;21.40;90.10;;;;;;5058532;28;20180;-90
2022/07/26 07:03:06;;;;;;;5.07;4.18;;;21.40;90.10;;;;;;5059719;28;20157;-91
2022/07/26 07:05:34;;;;;;;14.85;4.30;;;21.40;90.10;;;;;;5060954;28;20653;-88
2022/07/26 07:07:59;;;;;;;4.20;3.80;;;21.40;90.20;;;;;;5063508;28;20153;-89
2022/07/26 07:10:25;;;;;;;6.20;4.13;;;21.30;90.20;;;;;;5063247;28;20248;-88
2022/07/26 07:12:53;;;;;;;5.43;4.10;;;21.30;90.20;;;;;;5079048;28;20192;-91
2022/07/26 07:15:19;;;;;;;12.98;4.95;;;21.30;90.20;;;;;;5077911;28;20185;-89
2022/07/26 07:17:47;;;;;;;5.00;3.53;;;21.30;90.30;;;;;;5081908;28;20163;-86
2022/07/26 07:20:15;;;;;;;7.03;4.30;;;21.30;90.30;;;;;;5087757;28;20182;-86
2022/07/26 07:22:42;;;;;;;5.45;3.67;;;21.30;90.30;;;;;;5087341;28;20217;-87
2022/07/26 07:25:09;;;;;;;6.05;4.18;;;21.30;90.20;;;;;;5088004;28;20163;-88
2022/07/26 07:27:35;;;;;;;5.10;3.80;;;21.30;90.10;;;;;;5069617;28;20168;-90
2022/07/26 07:30:05;;;;;;;8.43;3.75;;;21.30;90.10;;;;;;5083532;28;20619;-91
2022/07/26 07:32:30;;;;;;;7.05;4.22;;;21.30;90.00;;;;;;5068689;28;20654;-88
2022/07/26 07:34:56;;;;;;;6.00;3.75;;;21.20;89.90;;;;;;5067811;28;20203;-88
2022/07/26 07:37:23;;;;;;;6.85;3.92;;;21.20;89.90;;;;;;5083805;28;20153;-89
2022/07/26 07:39:50;;;;;;;4.28;3.88;;;21.20;89.90;;;;;;5067553;28;20164;-88
2022/07/26 07:42:17;;;;;;;6.35;3.80;;;21.20;89.90;;;;;;5084332;28;20173;-88
2022/07/26 07:44:44;;;;;;;5.30;4.10;;;21.20;90.00;;;;;;5067524;28;20164;-90
2022/07/26 07:47:10;;;;;;;5.65;3.55;;;21.20;90.00;;;;;;5085231;28;20153;-88
2022/07/26 07:49:36;;;;;;;4.85;3.58;;;21.20;89.90;;;;;;5068124;28;20209;-88
2022/07/26 07:52:02;;;;;;;4.47;3.53;;;21.20;90.00;;;;;;5068171;28;20165;-89
2022/07/26 07:54:31;;;;;;;5.55;4.03;;;21.30;89.60;;;;;;5102176;28;20224;-89
2022/07/26 07:56:57;;;;;;;4.95;3.67;;;21.40;89.40;;;;;;5068706;28;20161;-88
2022/07/26 07:59:26;;;;;;;5.38;3.70;;;21.40;89.30;;;;;;5101802;28;20159;-88
2022/07/26 08:01:56;;;;;;;4.43;3.42;;;21.40;89.20;;;;;;5068161;28;20168;-88
2022/07/26 08:04:21;;;;;;;5.03;3.90;;;21.50;89.20;;;;;;5101365;28;20210;-89
2022/07/26 08:06:47;;;;;;;4.30;3.70;;;21.50;89.00;;;;;;5068373;28;20164;-91
2022/07/26 08:09:13;;;;;;;5.28;3.67;;;21.50;88.70;;;;;;5085331;28;20157;-89
2022/07/26 08:11:39;;;;;;;4.38;3.97;;;21.50;88.80;;;;;;5084489;28;20569;-88
2022/07/26 08:14:07;;;;;;;4.38;3.97;;;21.50;89.00;;;;;;5087897;28;20217;-89
2022/07/26 08:16:33;;;;;;;4.50;4.10;;;21.50;89.00;;;;;;5073730;28;20180;-89
2022/07/26 08:19:00;;;;;;;6.63;4.50;;;21.40;89.00;;;;;;5050700;28;20203;-89
2022/07/26 08:21:25;;;;;;;4.45;4.05;;;21.40;88.80;;;;;;5049165;28;20189;-88
2022/07/26 08:23:52;;;;;;;6.70;4.45;;;21.50;88.40;;;;;;5031725;28;20193;-89
2022/07/26 08:26:18;;;;;;;4.97;4.47;;;21.50;88.10;;;;;;5047579;28;20240;-89
2022/07/26 08:28:44;;;;;;;4.97;4.47;;;21.50;87.80;;;;;;5031582;28;20212;-88
2022/07/26 08:31:09;;;;;;;6.03;4.50;;;21.50;87.90;;;;;;5048292;28;20226;-89
2022/07/26 08:33:36;;;;;;;5.75;4.70;;;21.50;87.10;;;;;;5047702;28;20795;-88
2022/07/26 08:36:02;;;;;;;5.25;4.75;;;21.60;87.60;;;;;;5047571;28;20166;-91
2022/07/26 08:38:28;;;;;;;5.13;4.63;;;21.60;87.20;;;;;;5028866;28;20181;-89
2022/07/26 08:40:55;;;;;;;5.22;4.72;;;21.70;86.80;;;;;;5064195;28;20203;-89
2022/07/26 08:43:23;;;;;;;5.13;4.63;;;21.60;86.60;;;;;;5031320;28;20223;-88
2022/07/26 08:45:49;;;;;;;5.00;4.50;;;21.60;86.60;;;;;;5048032;28;20639;-89
2022/07/26 08:48:16;;;;;;;4.90;4.45;;;21.70;86.60;;;;;;5064406;28;20201;-88
2022/07/26 08:50:42;;;;;;;5.43;4.90;;;21.70;86.40;;;;;;5060424;28;20181;-89
2022/07/26 08:53:08;;;;;;;4.50;4.10;;;21.70;86.30;;;;;;5067703;28;20226;-90
2022/07/26 08:55:34;;;;;;;5.13;4.63;;;21.70;85.70;;;;;;5103180;28;20168;-89
2022/07/26 08:58:02;;;;;;;5.18;4.68;;;21.70;85.70;;;;;;5068948;28;20168;-89
2022/07/26 09:00:29;;;;;;;5.20;4.70;;;21.70;85.20;;;;;;5069277;28;20177;-88
2022/07/26 09:02:56;;;;;;;5.35;4.60;;;21.80;85.00;;;;;;5028300;28;20276;-88
2022/07/26 09:05:30;;;;;;;4.70;4.30;;;21.90;84.90;;;;;;5044343;28;20186;-89
2022/07/26 09:07:59;;;;;;;5.07;4.65;;;21.80;84.70;;;;;;5044868;28;20202;-88
2022/07/26 09:10:27;;;;;;;4.93;4.03;;;21.90;84.30;;;;;;5065890;28;20695;-88
2022/07/26 09:12:54;;;;;;;5.15;4.65;;;21.90;84.00;;;;;;5049024;28;20205;-87
2022/07/26 09:15:23;;;;;;;5.25;4.75;;;21.90;84.40;;;;;;5032450;28;20256;-88
2022/07/26 09:17:53;;;;;;;5.35;4.85;;;21.90;84.00;;;;;;5049626;28;20178;-88
2022/07/26 09:20:24;;;;;;;4.50;4.10;;;21.90;83.50;;;;;;5049169;28;20200;-87
2022/07/26 09:23:12;;;;;;;4.43;4.03;;;22.00;83.00;;;;;;5046469;28;20540;-90
2022/07/26 09:25:44;;;;;;;4.35;3.95;;;21.90;83.50;;;;;;5031454;28;20555;-87
2022/07/26 09:28:28;;;;;;;5.30;4.80;;;21.90;82.00;;;;;;5009721;28;20702;-89
2022/07/26 09:30:59;;;;;;;4.47;4.07;;;22.00;82.60;;;;;;4993418;28;20186;-88
2022/07/26 09:33:25;;;;;;;4.90;4.40;;;22.10;81.80;;;;;;5005474;28;20285;-88
2022/07/26 09:36:06;;;;;;;4.38;3.97;;;22.00;82.50;;;;;;5047995;28;20162;-88
2022/07/26 09:38:39;;;;;;;4.53;4.13;;;22.00;82.00;;;;;;5032267;28;20576;-88
2022/07/26 09:41:29;;;;;;;4.72;4.25;;;22.00;82.50;;;;;;5032408;28;20220;-88
2022/07/26 09:43:59;;;;;;;4.47;4.07;;;22.00;82.40;;;;;;5065716;28;20602;-87
2022/07/26 09:46:26;;;;;;;4.57;4.18;;;22.00;81.60;;;;;;5048223;28;20269;-88
2022/07/26 09:48:55;;;;;;;4.75;4.30;;;22.00;81.50;;;;;;5031801;28;20691;-88
2022/07/26 09:51:38;;;;;;;4.70;4.20;;;22.10;81.40;;;;;;5031930;28;20641;-88
2022/07/26 09:54:04;;;;;;;4.55;4.15;;;22.10;81.00;;;;;;5030573;28;20222;-88
2022/07/26 09:56:50;;;;;;;4.53;3.83;;;22.10;80.60;;;;;;5030565;28;20257;-88
2022/07/26 09:59:19;;;;;;;4.47;4.07;;;22.10;80.70;;;;;;5087885;28;20259;-88
2022/07/26 10:01:45;;;;;;;4.35;3.95;;;22.10;80.50;;;;;;5106004;28;20291;-88
2022/07/26 10:04:13;;;;;;;4.95;4.40;;;22.10;80.10;;;;;;5088666;28;20161;-87
2022/07/26 10:06:42;;;;;;;4.85;4.38;;;22.10;80.40;;;;;;5045996;28;20210;-88
2022/07/26 10:09:08;;;;;;;4.10;3.70;;;22.10;80.00;;;;;;5022334;28;20218;-87
2022/07/26 10:12:03;;;;;;;4.43;4.03;;;22.10;79.60;;;;;;4991900;28;20195;-88
2022/07/26 10:14:36;;;;;;;4.90;4.20;;;22.20;79.10;;;;;;5006118;28;20237;-87
2022/07/26 10:17:39;;;;;;;4.28;3.88;;;22.20;78.90;;;;;;5006181;28;20198;-88
2022/07/26 10:20:08;;;;;;;4.53;4.13;;;22.20;78.70;;;;;;5006442;28;20171;-87
2022/07/26 10:22:43;;;;;;;4.50;4.10;;;22.20;78.90;;;;;;4989597;28;20245;-88
2022/07/26 10:25:45;;;;;;;4.32;3.92;;;22.20;78.30;;;;;;4973271;28;20275;-88
2022/07/26 10:28:25;;;;;;;4.05;3.65;;;22.30;78.80;;;;;;4995827;28;20174;-87
2022/07/26 10:31:23;;;;;;;4.82;4.25;;;22.30;77.90;;;;;;4977044;28;20195;-86
2022/07/26 10:33:58;;;;;;;5.53;4.22;;;22.30;78.60;;;;;;5008438;28;20215;-87
2022/07/26 10:36:37;;;;;;;3.97;3.58;;;22.30;78.50;;;;;;4970358;28;20184;-87
2022/07/26 10:39:15;;;;;;;4.32;3.92;;;22.30;77.70;;;;;;5006165;28;20190;-87
2022/07/26 10:41:59;;;;;;;4.78;4.28;;;22.30;78.70;;;;;;4935726;29;20181;-87
2022/07/26 10:44:33;;;;;;;4.57;4.03;;;22.30;77.60;;;;;;4928268;29;20187;-87
2022/07/26 10:47:01;;;;;;;5.40;3.92;;;22.30;77.40;;;;;;4942080;29;20643;-88
2022/07/26 10:49:39;;;;;;;4.32;3.92;;;22.30;77.30;;;;;;4910598;29;20187;-88
2022/07/26 10:52:16;;;;;;;4.40;4.00;;;22.40;77.10;;;;;;4911624;29;20719;-88
2022/07/26 10:55:03;;;;;;;3.90;3.50;;;22.30;77.00;;;;;;4912113;29;20217;-86
2022/07/26 10:57:33;;;;;;;4.53;4.13;;;22.40;76.70;;;;;;4910778;29;20638;-86
2022/07/26 11:00:14;;;;;;;4.32;3.88;;;22.30;76.50;;;;;;4911677;29;20287;-87
2022/07/26 11:02:42;;;;;;;4.40;4.00;;;22.40;76.60;;;;;;4915546;29;20286;-88
2022/07/26 11:05:12;;;;;;;5.57;3.97;;;22.40;77.30;;;;;;4933134;29;20177;-87
2022/07/26 11:07:50;;;;;;;4.30;3.83;;;22.40;76.20;;;;;;4958602;28;20565;-88
2022/07/26 11:10:22;;;;;;;4.22;3.83;;;22.40;76.00;;;;;;4972046;28;20171;-87
2022/07/26 11:13:13;;;;;;;4.28;3.92;;;22.40;75.90;;;;;;4988272;28;20666;-87
2022/07/26 11:15:43;;;;;;;4.30;3.90;;;22.40;75.60;;;;;;4987143;28;20571;-88
2022/07/26 11:18:31;;;;;;;4.00;3.60;;;22.40;75.70;;;;;;4993294;28;20173;-87
2022/07/26 11:20:57;;;;;;;4.03;3.63;;;22.40;75.20;;;;;;5058217;28;20180;-88
2022/07/26 11:23:27;;;;;;;4.00;3.58;;;22.40;75.40;;;;;;5070432;28;20260;-87
2022/07/26 11:26:12;;;;;;;4.30;3.90;;;22.40;75.20;;;;;;5071108;28;20165;-89
2022/07/26 11:28:50;;;;;;;4.25;3.85;;;22.40;75.40;;;;;;5086278;28;20172;-87
2022/07/26 11:31:16;;;;;;;4.25;3.80;;;22.40;74.90;;;;;;5070380;28;20180;-88
2022/07/26 11:33:47;;;;;;;3.75;3.45;;;22.50;74.90;;;;;;5053346;28;20208;-88
2022/07/26 11:36:18;;;;;;;3.90;3.58;;;22.40;74.80;;;;;;5070070;28;20256;-87
2022/07/26 11:38:47;;;;;;;4.68;3.95;;;22.40;74.50;;;;;;5068385;28;20173;-87
2022/07/26 11:41:23;;;;;;;4.38;3.97;;;22.50;74.60;;;;;;5052698;28;20230;-88
2022/07/26 11:44:00;;;;;;;4.50;4.03;;;22.40;74.40;;;;;;5022774;28;20210;-89
2022/07/26 11:46:36;;;;;;;4.22;3.83;;;22.50;73.90;;;;;;4974017;28;20183;-89
2022/07/26 11:49:20;;;;;;;3.85;3.55;;;22.50;74.10;;;;;;4978565;28;20201;-87
2022/07/26 11:51:51;;;;;;;4.13;3.72;;;22.50;73.60;;;;;;5013300;28;20700;-86
2022/07/26 11:54:20;;;;;;;4.05;3.67;;;22.50;73.80;;;;;;4993714;28;20222;-88
2022/07/26 11:56:50;;;;;;;4.32;3.92;;;22.50;73.60;;;;;;5010064;28;20184;-88
2022/07/26 11:59:22;;;;;;;3.92;3.53;;;22.50;73.60;;;;;;4994627;28;20203;-87
2022/07/26 12:01:47;;;;;;;4.30;3.90;;;22.50;73.70;;;;;;5010743;28;20201;-88
2022/07/26 12:04:18;;;;;;;4.32;3.92;;;22.50;73.70;;;;;;4971786;28;20220;-87
2022/07/26 12:06:44;;;;;;;3.67;3.38;;;22.40;73.60;;;;;;4955540;28;20211;-89
2022/07/26 12:09:12;;;;;;;3.85;3.50;;;22.50;73.30;;;;;;4939555;28;20188;-88
2022/07/26 12:11:40;;;;;;;4.88;4.10;;;22.50;72.80;;;;;;4956109;28;20187;-88
2022/07/26 12:14:08;;;;;;;4.22;3.83;;;22.50;72.80;;;;;;4960401;28;20589;-88
2022/07/26 12:16:41;;;;;;;4.15;3.75;;;22.50;72.30;;;;;;4991380;28;20191;-89
2022/07/26 12:19:08;;;;;;;4.07;3.65;;;22.50;72.30;;;;;;4975542;28;20272;-89
2022/07/26 12:21:46;;;;;;;4.18;3.78;;;22.50;72.10;;;;;;4986398;28;20179;-87
2022/07/26 12:24:34;;;;;;;3.97;3.60;;;22.60;72.40;;;;;;5012991;28;20182;-87
2022/07/26 12:27:06;;;;;;;4.10;3.70;;;22.50;72.40;;;;;;5030093;28;20163;-87
2022/07/26 12:29:37;;;;;;;4.00;3.60;;;22.60;71.90;;;;;;5012863;28;20183;-88
2022/07/26 12:32:05;;;;;;;4.07;3.67;;;22.50;72.20;;;;;;5006661;28;20187;-89
2022/07/26 12:34:34;;;;;;;4.32;3.92;;;22.50;72.10;;;;;;4978628;28;20257;-87
2022/07/26 12:37:21;;;;;;;4.20;3.80;;;22.50;72.10;;;;;;4990716;28;20190;-88
2022/07/26 12:40:09;;;;;;;3.85;3.50;;;22.50;72.00;;;;;;5006875;28;20251;-87
2022/07/26 12:42:43;;;;;;;4.10;3.70;;;22.50;72.00;;;;;;5006707;28;20251;-87
2022/07/26 12:45:12;;;;;;;4.35;3.95;;;22.50;71.90;;;;;;5039974;28;20187;-87
2022/07/26 12:47:40;;;;;;;4.18;3.78;;;22.50;71.90;;;;;;5032871;28;20178;-88
2022/07/26 12:50:08;;;;;;;3.80;3.50;;;22.50;71.80;;;;;;5032794;28;20178;-88
2022/07/26 12:52:35;;;;;;;4.10;3.63;;;22.50;71.60;;;;;;5049576;28;20227;-88
2022/07/26 12:55:02;;;;;;;4.32;3.92;;;22.50;71.60;;;;;;5032693;28;20229;-87
2022/07/26 12:57:28;;;;;;;4.18;3.67;;;22.50;71.50;;;;;;5032661;28;20174;-88
2022/07/26 12:59:55;;;;;;;3.70;3.40;;;22.50;71.30;;;;;;5031973;28;20178;-88